Time;durP1;ratioP1;P1;durP2;ratioP2;P2;SDS_P1;SDS_P2;PMS_P1;PMS_P2;Temp;Humidity;BMP_temperature;BMP_pressure;BME280_temperature;BME280_humidity;BME280_pressure;Samples;Min_cycle;Max_cycle;Signal;HPM_P1;HPM_P2
2023/09/25 00:01:34;;;;;;;;;;;;;;;;;;5047538;28;20392;-74
2023/09/25 00:04:02;;;;;;;;;;;;;;;;;;5052505;28;19982;-73
2023/09/25 00:06:29;;;;;;;;;;;;;;;;;;5053242;28;19979;-73
2023/09/25 00:08:56;;;;;;;;;;;;;;;;;;5052015;28;19925;-73
2023/09/25 00:11:23;;;;;;;;;;;;;;;;;;5050825;28;20356;-73
2023/09/25 00:13:50;;;;;;;;;;;;;;;;;;5051571;28;19924;-74
2023/09/25 00:16:17;;;;;;;;;;;;;;;;;;5048773;28;20449;-74
2023/09/25 00:18:44;;;;;;;;;;;;;;;;;;5052068;28;19924;-75
2023/09/25 00:21:13;;;;;;;;;;;;;;;;;;5047828;28;23952;-74
2023/09/25 00:23:40;;;;;;;;;;;;;;;;;;5052344;28;19979;-74
2023/09/25 00:26:07;;;;;;;;;;;;;;;;;;5052609;28;20446;-74
2023/09/25 00:28:34;;;;;;;;;;;;;;;;;;5052502;28;19925;-74
2023/09/25 00:31:01;;;;;;;;;;;;;;;;;;5050718;28;19925;-73
2023/09/25 00:33:28;;;;;;;;;;;;;;;;;;5052825;28;19928;-73
2023/09/25 00:35:56;;;;;;;;;;;;;;;;;;5052309;28;19929;-73
2023/09/25 00:38:23;;;;;;;;;;;;;;;;;;5052204;28;19936;-74
2023/09/25 00:40:50;;;;;;;;;;;;;;;;;;5052316;28;19932;-73
2023/09/25 00:43:17;;;;;;;;;;;;;;;;;;5051130;28;19968;-73
2023/09/25 00:45:44;;;;;;;;;;;;;;;;;;5051579;28;20442;-73
2023/09/25 00:48:11;;;;;;;;;;;;;;;;;;5052684;28;19979;-73
2023/09/25 00:50:38;;;;;;;;;;;;;;;;;;5049253;28;19971;-73
2023/09/25 00:53:07;;;;;;;;;;;;;;;;;;5051993;28;19971;-74
2023/09/25 00:55:34;;;;;;;;;;;;;;;;;;5058319;28;19931;-74
2023/09/25 00:58:01;;;;;;;;;;;;;;;;;;5053968;28;19979;-74
2023/09/25 01:00:28;;;;;;;;;;;;;;;;;;5051051;28;19979;-74
2023/09/25 01:02:55;;;;;;;;;;;;;;;;;;5050752;28;19928;-74
2023/09/25 01:05:22;;;;;;;;;;;;;;;;;;5051915;28;19933;-75
2023/09/25 01:07:49;;;;;;;;;;;;;;;;;;5052498;28;19948;-74
2023/09/25 01:10:16;;;;;;;;;;;;;;;;;;5052438;28;19925;-74
2023/09/25 01:12:43;;;;;;;;;;;;;;;;;;5047698;28;19925;-74
2023/09/25 01:15:10;;;;;;;;;;;;;;;;;;5040776;28;19926;-74
2023/09/25 01:17:37;;;;;;;;;;;;;;;;;;5045437;28;19928;-75
2023/09/25 01:20:12;;;;;;;;;;;;;;;;;;5047276;28;19925;-75
2023/09/25 01:22:39;;;;;;;;;;;;;;;;;;5052467;28;19925;-74
2023/09/25 01:25:07;;;;;;;;;;;;;;;;;;5052537;28;19925;-75
2023/09/25 01:27:34;;;;;;;;;;;;;;;;;;5050523;28;20032;-75
2023/09/25 01:30:01;;;;;;;;;;;;;;;;;;5051284;28;19978;-74
2023/09/25 01:32:28;;;;;;;;;;;;;;;;;;5051731;28;19970;-75
2023/09/25 01:34:55;;;;;;;;;;;;;;;;;;5049172;28;19932;-74
2023/09/25 01:37:22;;;;;;;;;;;;;;;;;;5049668;28;20396;-74
2023/09/25 01:39:49;;;;;;;;;;;;;;;;;;5051848;28;19925;-74
2023/09/25 01:42:16;;;;;;;;;;;;;;;;;;5051340;28;19971;-74
2023/09/25 01:44:43;;;;;;;;;;;;;;;;;;5051070;28;19975;-74
2023/09/25 01:47:10;;;;;;;;;;;;;;;;;;5047678;28;19929;-74
2023/09/25 01:49:37;;;;;;;;;;;;;;;;;;5042852;28;19925;-75
2023/09/25 01:52:07;;;;;;;;;;;;;;;;;;5048215;28;19925;-74
2023/09/25 01:54:35;;;;;;;;;;;;;;;;;;5047228;28;19928;-74
2023/09/25 01:57:01;;;;;;;;;;;;;;;;;;5055086;28;19925;-74
2023/09/25 01:59:28;;;;;;;;;;;;;;;;;;5055748;28;19925;-74
2023/09/25 02:01:55;;;;;;;;;;;;;;;;;;5054583;28;20473;-74
2023/09/25 02:04:22;;;;;;;;;;;;;;;;;;5051958;28;19980;-74
2023/09/25 02:06:49;;;;;;;;;;;;;;;;;;5046997;28;19925;-74
2023/09/25 02:09:16;;;;;;;;;;;;;;;;;;5052145;28;19925;-74
2023/09/25 02:11:43;;;;;;;;;;;;;;;;;;5054509;28;20384;-75
2023/09/25 02:14:10;;;;;;;;;;;;;;;;;;5050511;28;19925;-74
2023/09/25 02:16:37;;;;;;;;;;;;;;;;;;5053885;28;19928;-75
2023/09/25 02:19:05;;;;;;;;;;;;;;;;;;5052777;28;19952;-74
2023/09/25 02:21:32;;;;;;;;;;;;;;;;;;5054248;28;19936;-75
2023/09/25 02:23:59;;;;;;;;;;;;;;;;;;5054656;28;19994;-74
2023/09/25 02:26:26;;;;;;;;;;;;;;;;;;5054223;28;19924;-74
2023/09/25 02:28:53;;;;;;;;;;;;;;;;;;5055407;28;19929;-74
2023/09/25 02:31:20;;;;;;;;;;;;;;;;;;5052098;28;19975;-75
2023/09/25 02:33:47;;;;;;;;;;;;;;;;;;5039612;28;20262;-74
2023/09/25 02:36:15;;;;;;;;;;;;;;;;;;5036748;28;20676;-74
2023/09/25 02:38:42;;;;;;;;;;;;;;;;;;5053920;28;19970;-74
2023/09/25 02:41:09;;;;;;;;;;;;;;;;;;5053685;28;19924;-74
2023/09/25 02:43:36;;;;;;;;;;;;;;;;;;5054864;28;19925;-74
2023/09/25 02:46:03;;;;;;;;;;;;;;;;;;5054317;28;19929;-74
2023/09/25 02:48:30;;;;;;;;;;;;;;;;;;5055237;28;20033;-74
2023/09/25 02:50:57;;;;;;;;;;;;;;;;;;5056687;28;20388;-74
2023/09/25 02:53:25;;;;;;;;;;;;;;;;;;5057389;28;19925;-75
2023/09/25 02:55:52;;;;;;;;;;;;;;;;;;5056852;28;19924;-74
2023/09/25 02:58:19;;;;;;;;;;;;;;;;;;5055266;28;19967;-75
2023/09/25 03:00:46;;;;;;;;;;;;;;;;;;5039648;28;19933;-75
2023/09/25 03:03:14;;;;;;;;;;;;;;;;;;5053954;28;19928;-75
2023/09/25 03:05:41;;;;;;;;;;;;;;;;;;5052867;28;20338;-74
2023/09/25 03:08:08;;;;;;;;;;;;;;;;;;5054396;28;19925;-74
2023/09/25 03:10:35;;;;;;;;;;;;;;;;;;5044768;28;19926;-74
2023/09/25 03:13:02;;;;;;;;;;;;;;;;;;5039463;28;19995;-75
2023/09/25 03:15:29;;;;;;;;;;;;;;;;;;5053019;28;19924;-75
2023/09/25 03:17:56;;;;;;;;;;;;;;;;;;5050636;28;19925;-75
2023/09/25 03:20:23;;;;;;;;;;;;;;;;;;5053240;28;19929;-74
2023/09/25 03:22:50;;;;;;;;;;;;;;;;;;5053981;28;19925;-75
2023/09/25 03:25:17;;;;;;;;;;;;;;;;;;5053792;28;20022;-75
2023/09/25 03:27:44;;;;;;;;;;;;;;;;;;5048422;28;19979;-74
2023/09/25 03:30:11;;;;;;;;;;;;;;;;;;5049576;28;19979;-74
2023/09/25 03:32:38;;;;;;;;;;;;;;;;;;5052864;28;19952;-75
2023/09/25 03:35:05;;;;;;;;;;;;;;;;;;5050494;28;19987;-74
2023/09/25 03:37:32;;;;;;;;;;;;;;;;;;5052791;28;19932;-74
2023/09/25 03:39:59;;;;;;;;;;;;;;;;;;5044197;28;19972;-75
2023/09/25 03:42:26;;;;;;;;;;;;;;;;;;5053433;28;19994;-75
2023/09/25 03:44:53;;;;;;;;;;;;;;;;;;5051813;28;19983;-76
2023/09/25 03:47:20;;;;;;;;;;;;;;;;;;5050855;28;20296;-74
2023/09/25 03:49:47;;;;;;;;;;;;;;;;;;5049678;28;19925;-74
2023/09/25 03:52:14;;;;;;;;;;;;;;;;;;5051254;28;20454;-74
2023/09/25 03:54:41;;;;;;;;;;;;;;;;;;5052104;28;20388;-74
2023/09/25 03:57:09;;;;;;;;;;;;;;;;;;5053376;28;19925;-75
2023/09/25 03:59:35;;;;;;;;;;;;;;;;;;5053687;28;19939;-74
2023/09/25 04:02:02;;;;;;;;;;;;;;;;;;5052463;28;19925;-73
2023/09/25 04:04:29;;;;;;;;;;;;;;;;;;5052240;28;20343;-73
2023/09/25 04:06:57;;;;;;;;;;;;;;;;;;5052144;28;19971;-73
2023/09/25 04:09:24;;;;;;;;;;;;;;;;;;5052620;28;19929;-74
2023/09/25 04:11:51;;;;;;;;;;;;;;;;;;5053079;28;20414;-74
2023/09/25 04:14:18;;;;;;;;;;;;;;;;;;5051576;28;19994;-73
2023/09/25 04:16:46;;;;;;;;;;;;;;;;;;5048888;28;19925;-72
2023/09/25 04:19:13;;;;;;;;;;;;;;;;;;5051987;28;19933;-72
2023/09/25 04:21:40;;;;;;;;;;;;;;;;;;5052963;28;19978;-72
2023/09/25 04:24:10;;;;;;;;;;;;;;;;;;5052665;28;20446;-72
2023/09/25 04:26:39;;;;;;;;;;;;;;;;;;5055835;28;19924;-72
2023/09/25 04:29:09;;;;;;;;;;;;;;;;;;5051595;28;20299;-72
2023/09/25 04:31:36;;;;;;;;;;;;;;;;;;5050772;28;19924;-73
2023/09/25 04:34:03;;;;;;;;;;;;;;;;;;5045265;28;19964;-72
2023/09/25 04:36:30;;;;;;;;;;;;;;;;;;5051881;28;19929;-73
2023/09/25 04:38:57;;;;;;;;;;;;;;;;;;5050987;28;20015;-73
2023/09/25 04:41:24;;;;;;;;;;;;;;;;;;5052089;28;20023;-73
2023/09/25 04:43:52;;;;;;;;;;;;;;;;;;5052662;28;19971;-73
2023/09/25 04:46:19;;;;;;;;;;;;;;;;;;5051794;28;19932;-74
2023/09/25 04:48:46;;;;;;;;;;;;;;;;;;5039300;28;19929;-73
2023/09/25 04:51:14;;;;;;;;;;;;;;;;;;5041166;28;19929;-73
2023/09/25 04:53:42;;;;;;;;;;;;;;;;;;5050504;28;19925;-73
2023/09/25 04:56:10;;;;;;;;;;;;;;;;;;5048783;28;19924;-73
2023/09/25 04:58:37;;;;;;;;;;;;;;;;;;5050900;28;19931;-74
2023/09/25 05:01:04;;;;;;;;;;;;;;;;;;5051560;28;20036;-72
2023/09/25 05:03:31;;;;;;;;;;;;;;;;;;5050832;28;19931;-74
2023/09/25 05:05:58;;;;;;;;;;;;;;;;;;5050411;28;19987;-74
2023/09/25 05:08:25;;;;;;;;;;;;;;;;;;5043652;28;19967;-73
2023/09/25 05:10:52;;;;;;;;;;;;;;;;;;5051678;28;19974;-72
2023/09/25 05:13:19;;;;;;;;;;;;;;;;;;5051458;28;19925;-72
2023/09/25 05:15:46;;;;;;;;;;;;;;;;;;5052323;28;19925;-73
2023/09/25 05:18:13;;;;;;;;;;;;;;;;;;5048224;28;20388;-73
2023/09/25 05:20:40;;;;;;;;;;;;;;;;;;5034100;28;20006;-73
2023/09/25 05:23:07;;;;;;;;;;;;;;;;;;5036665;28;19924;-74
2023/09/25 05:25:34;;;;;;;;;;;;;;;;;;5052025;28;20287;-73
2023/09/25 05:28:01;;;;;;;;;;;;;;;;;;5051826;28;19936;-73
2023/09/25 05:30:28;;;;;;;;;;;;;;;;;;5054773;28;19925;-73
2023/09/25 05:32:55;;;;;;;;;;;;;;;;;;5052926;28;19936;-73
2023/09/25 05:35:22;;;;;;;;;;;;;;;;;;5052261;28;20399;-72
2023/09/25 05:37:49;;;;;;;;;;;;;;;;;;5054625;28;19971;-72
2023/09/25 05:40:19;;;;;;;;;;;;;;;;;;5055999;28;19924;-72
2023/09/25 05:42:46;;;;;;;;;;;;;;;;;;5050632;28;20471;-70
2023/09/25 05:45:13;;;;;;;;;;;;;;;;;;5051447;28;20015;-72
2023/09/25 05:47:40;;;;;;;;;;;;;;;;;;5052004;28;20395;-73
2023/09/25 05:50:07;;;;;;;;;;;;;;;;;;5053030;28;19940;-73
2023/09/25 05:52:35;;;;;;;;;;;;;;;;;;5054333;28;19928;-73
2023/09/25 05:55:02;;;;;;;;;;;;;;;;;;5045989;28;19978;-72
2023/09/25 05:57:29;;;;;;;;;;;;;;;;;;5055536;28;20372;-72
2023/09/25 05:59:56;;;;;;;;;;;;;;;;;;5051329;28;20011;-72
2023/09/25 06:02:23;;;;;;;;;;;;;;;;;;5052769;28;19925;-73
2023/09/25 06:04:50;;;;;;;;;;;;;;;;;;5048793;28;19932;-72
2023/09/25 06:07:18;;;;;;;;;;;;;;;;;;5054197;28;20004;-73
2023/09/25 06:09:45;;;;;;;;;;;;;;;;;;5043747;28;20015;-72
2023/09/25 06:12:13;;;;;;;;;;;;;;;;;;5053758;28;19924;-72
2023/09/25 06:14:40;;;;;;;;;;;;;;;;;;5051437;28;19924;-71
2023/09/25 06:17:09;;;;;;;;;;;;;;;;;;5054658;28;19949;-72
2023/09/25 06:19:36;;;;;;;;;;;;;;;;;;5055687;28;19925;-62
2023/09/25 06:22:03;;;;;;;;;;;;;;;;;;5055318;28;19931;-72
2023/09/25 06:24:31;;;;;;;;;;;;;;;;;;5057446;28;19975;-77
2023/09/25 06:26:59;;;;;;;;;;;;;;;;;;5055627;28;19989;-75
2023/09/25 06:29:26;;;;;;;;;;;;;;;;;;5055019;28;19925;-77
2023/09/25 06:31:53;;;;;;;;;;;;;;;;;;5049344;28;19924;-73
2023/09/25 06:34:20;;;;;;;;;;;;;;;;;;5052787;28;19925;-76
2023/09/25 06:36:47;;;;;;;;;;;;;;;;;;5048672;28;19971;-76
2023/09/25 06:39:14;;;;;;;;;;;;;;;;;;5052813;28;19947;-75
2023/09/25 06:41:43;;;;;;;;;;;;;;;;;;5038562;28;19995;-75
2023/09/25 06:44:10;;;;;;;;;;;;;;;;;;5034570;28;20380;-77
2023/09/25 06:46:37;;;;;;;;;;;;;;;;;;5046528;28;19983;-76
2023/09/25 06:49:05;;;;;;;;;;;;;;;;;;5048714;28;19925;-76
2023/09/25 06:51:32;;;;;;;;;;;;;;;;;;5047965;28;20067;-76
2023/09/25 06:53:59;;;;;;;;;;;;;;;;;;5052823;28;20097;-75
2023/09/25 06:56:26;;;;;;;;;;;;;;;;;;5046994;28;19925;-77
2023/09/25 06:58:53;;;;;;;;;;;;;;;;;;5047217;28;21310;-75
2023/09/25 07:01:21;;;;;;;;;;;;;;;;;;5042995;28;19979;-74
2023/09/25 07:03:48;;;;;;;;;;;;;;;;;;5047642;28;19932;-76
2023/09/25 07:06:15;;;;;;;;;;;;;;;;;;5049839;28;19964;-75
2023/09/25 07:08:42;;;;;;;;;;;;;;;;;;5050041;28;20313;-73
2023/09/25 07:11:09;;;;;;;;;;;;;;;;;;5049242;28;20015;-75
2023/09/25 07:13:36;;;;;;;;;;;;;;;;;;5047109;28;20018;-74
2023/09/25 07:16:03;;;;;;;;;;;;;;;;;;5052523;28;19979;-74
2023/09/25 07:18:30;;;;;;;;;;;;;;;;;;5045411;28;19932;-75
2023/09/25 07:20:57;;;;;;;;;;;;;;;;;;5053393;28;20176;-75
2023/09/25 07:23:24;;;;;;;;;;;;;;;;;;5052844;28;19925;-76
2023/09/25 07:25:51;;;;;;;;;;;;;;;;;;5051785;28;19940;-75
2023/09/25 07:28:19;;;;;;;;;;;;;;;;;;5047478;28;19925;-76
2023/09/25 07:30:46;;;;;;;;;;;;;;;;;;5051785;28;19937;-76
2023/09/25 07:33:13;;;;;;;;;;;;;;;;;;5047767;28;19929;-75
2023/09/25 07:35:40;;;;;;;;;;;;;;;;;;5047479;28;19971;-75
2023/09/25 07:38:07;;;;;;;;;;;;;;;;;;5053488;28;20330;-76
2023/09/25 07:40:34;;;;;;;;;;;;;;;;;;5048509;28;19982;-76
2023/09/25 07:43:01;;;;;;;;;;;;;;;;;;5050936;28;19925;-77
2023/09/25 07:45:30;;;;;;;;;;;;;;;;;;5045989;28;19925;-77
2023/09/25 07:47:57;;;;;;;;;;;;;;;;;;5048542;28;19956;-76
2023/09/25 07:50:25;;;;;;;;;;;;;;;;;;5045563;28;19935;-76
2023/09/25 07:52:54;;;;;;;;;;;;;;;;;;5084256;22;19934;-77
2023/09/25 07:55:21;;;;;;;;;;;;;;;;;;5112582;27;19924;-76
2023/09/25 07:57:49;;;;;;;;;;;;;;;;;;5109397;27;19997;-77
2023/09/25 08:00:21;;;;;;;;;;;;;;;;;;5106721;27;19928;-77
2023/09/25 08:02:49;;;;;;;;;;;;;;;;;;5099758;27;19936;-77
2023/09/25 08:05:18;;;;;;;;;;;;;;;;;;5111079;27;19937;-76
2023/09/25 08:07:45;;;;;;;;;;;;;;;;;;5106101;27;19928;-75
2023/09/25 08:10:12;;;;;;;;;;;;;;;;;;5108911;27;20370;-75
2023/09/25 08:12:39;;;;;;;;;;;;;;;;;;5109998;27;19966;-76
2023/09/25 08:15:07;;;;;;;;;;;;;;;;;;5110686;27;19961;-76
2023/09/25 08:17:34;;;;;;;;;;;;;;;;;;5105724;27;20425;-76
2023/09/25 08:20:01;;;;;;;;;;;;;;;;;;5111127;27;19945;-76
2023/09/25 08:22:31;;;;;;;;;;;;;;;;;;5107007;27;20110;-75
2023/09/25 08:24:58;;;;;;;;;;;;;;;;;;5105105;27;20338;-78
2023/09/25 08:27:25;;;;;;;;;;;;;;;;;;5110654;27;19924;-77
2023/09/25 08:29:52;;;;;;;;;;;;;;;;;;5109342;27;20027;-77
2023/09/25 08:32:19;;;;;;;;;;;;;;;;;;5107955;27;19932;-77
2023/09/25 08:34:46;;;;;;;;;;;;;;;;;;5108057;27;19984;-79
2023/09/25 08:37:13;;;;;;;;;;;;;;;;;;5106049;27;19931;-76
2023/09/25 08:39:40;;;;;;;;;;;;;;;;;;5103043;27;19988;-74
2023/09/25 08:42:07;;;;;;;;;;;;;;;;;;5105064;27;19924;-75
2023/09/25 08:44:36;;;;;;;;;;;;;;;;;;5110462;28;20000;-75
2023/09/25 08:47:03;;;;;;;;;;;;;;;;;;5110735;27;19951;-74
2023/09/25 08:49:30;;;;;;;;;;;;;;;;;;5103261;27;19938;-75
2023/09/25 08:51:57;;;;;;;;;;;;;;;;;;5105333;27;19923;-73
2023/09/25 08:54:24;;;;;;;;;;;;;;;;;;5110003;27;19938;-74
2023/09/25 08:56:51;;;;;;;;;;;;;;;;;;5105937;28;19960;-75
2023/09/25 08:59:19;;;;;;;;;;;;;;;;;;5103789;27;19929;-75
2023/09/25 09:01:46;;;;;;;;;;;;;;;;;;5103696;27;19927;-75
2023/09/25 09:04:13;;;;;;;;;;;;;;;;;;5108017;27;20298;-75
2023/09/25 09:06:40;;;;;;;;;;;;;;;;;;5106029;28;19932;-75
2023/09/25 09:09:09;;;;;;;;;;;;;;;;;;5107009;28;19972;-75
2023/09/25 09:11:36;;;;;;;;;;;;;;;;;;5104901;27;19996;-75
2023/09/25 09:14:03;;;;;;;;;;;;;;;;;;5105344;28;20014;-75
2023/09/25 09:16:30;;;;;;;;;;;;;;;;;;5112703;28;19935;-75
2023/09/25 09:18:57;;;;;;;;;;;;;;;;;;5087025;22;19990;-75
2023/09/25 09:21:25;;;;;;;;;;;;;;;;;;5070120;28;19932;-74
2023/09/25 09:23:53;;;;;;;;;;;;;;;;;;5062892;28;19982;-75
2023/09/25 09:26:20;;;;;;;;;;;;;;;;;;5063893;28;19925;-74
2023/09/25 09:28:48;;;;;;;;;;;;;;;;;;5059256;28;19952;-75
2023/09/25 09:31:17;;;;;;;;;;;;;;;;;;5059929;28;20347;-75
2023/09/25 09:33:44;;;;;;;;;;;;;;;;;;5065591;28;20109;-73
2023/09/25 09:36:12;;;;;;;;;;;;;;;;;;5063553;28;20011;-73
2023/09/25 09:38:41;;;;;;;;;;;;;;;;;;5056821;28;19928;-74
2023/09/25 09:41:08;;;;;;;;;;;;;;;;;;5057346;28;20304;-75
2023/09/25 09:43:35;;;;;;;;;;;;;;;;;;5054158;28;19932;-77
2023/09/25 09:46:02;;;;;;;;;;;;;;;;;;5056689;28;19939;-71
2023/09/25 09:48:29;;;;;;;;;;;;;;;;;;5060042;28;19934;-80
2023/09/25 09:50:59;;;;;;;;;;;;;;;;;;5070327;28;19924;-78
2023/09/25 09:53:28;;;;;;;;;;;;;;;;;;5073767;28;19998;-78
2023/09/25 09:55:55;;;;;;;;;;;;;;;;;;5072743;28;19931;-79
2023/09/25 09:58:22;;;;;;;;;;;;;;;;;;5057575;28;20433;-81
2023/09/25 10:00:49;;;;;;;;;;;;;;;;;;5071797;28;20371;-78
2023/09/25 10:03:16;;;;;;;;;;;;;;;;;;5052853;28;19934;-79
2023/09/25 10:05:43;;;;;;;;;;;;;;;;;;5057714;28;20016;-78
2023/09/25 10:08:11;;;;;;;;;;;;;;;;;;5066850;28;20369;-77
2023/09/25 10:10:38;;;;;;;;;;;;;;;;;;5051675;28;20032;-78
2023/09/25 10:13:05;;;;;;;;;;;;;;;;;;5067310;28;19932;-78
2023/09/25 10:15:32;;;;;;;;;;;;;;;;;;5062336;28;19968;-79
2023/09/25 10:17:59;;;;;;;;;;;;;;;;;;5063685;28;19982;-78
2023/09/25 10:20:26;;;;;;;;;;;;;;;;;;5058038;28;19932;-77
2023/09/25 10:22:53;;;;;;;;;;;;;;;;;;5061542;28;20002;-75
2023/09/25 10:25:20;;;;;;;;;;;;;;;;;;5066121;28;19936;-78
2023/09/25 10:27:47;;;;;;;;;;;;;;;;;;5065396;28;19931;-75
2023/09/25 10:30:15;;;;;;;;;;;;;;;;;;5061529;28;19997;-75
2023/09/25 10:32:43;;;;;;;;;;;;;;;;;;5066444;28;20007;-77
2023/09/25 10:35:10;;;;;;;;;;;;;;;;;;5069549;28;20039;-76
2023/09/25 10:37:37;;;;;;;;;;;;;;;;;;5067289;28;20399;-76
2023/09/25 10:40:05;;;;;;;;;;;;;;;;;;5065152;28;19943;-77
2023/09/25 10:42:32;;;;;;;;;;;;;;;;;;5056369;28;19925;-78
2023/09/25 10:44:59;;;;;;;;;;;;;;;;;;5066379;28;20002;-77
2023/09/25 10:47:26;;;;;;;;;;;;;;;;;;5054295;28;20114;-77
2023/09/25 10:49:53;;;;;;;;;;;;;;;;;;5059324;28;20069;-77
2023/09/25 10:52:20;;;;;;;;;;;;;;;;;;5061519;28;20408;-76
2023/09/25 10:54:48;;;;;;;;;;;;;;;;;;5055775;28;19928;-76
2023/09/25 10:57:15;;;;;;;;;;;;;;;;;;5063977;28;20413;-77
2023/09/25 10:59:42;;;;;;;;;;;;;;;;;;5061868;28;19933;-76
2023/09/25 11:02:09;;;;;;;;;;;;;;;;;;5059903;28;19928;-80
2023/09/25 11:04:36;;;;;;;;;;;;;;;;;;5060612;28;19940;-81
2023/09/25 11:07:03;;;;;;;;;;;;;;;;;;5064760;28;20529;-80
2023/09/25 11:09:30;;;;;;;;;;;;;;;;;;5059341;28;19933;-80
2023/09/25 11:11:57;;;;;;;;;;;;;;;;;;5054844;28;19937;-80
2023/09/25 11:14:24;;;;;;;;;;;;;;;;;;5062111;28;20387;-81
2023/09/25 11:16:51;;;;;;;;;;;;;;;;;;5071002;28;19977;-77
2023/09/25 11:19:19;;;;;;;;;;;;;;;;;;5060972;28;19929;-76
2023/09/25 11:21:46;;;;;;;;;;;;;;;;;;5056446;28;20568;-78
2023/09/25 11:24:13;;;;;;;;;;;;;;;;;;5069654;28;20681;-77
2023/09/25 11:26:41;;;;;;;;;;;;;;;;;;5060455;28;19970;-77
2023/09/25 11:29:08;;;;;;;;;;;;;;;;;;5075478;28;19993;-79
2023/09/25 11:31:36;;;;;;;;;;;;;;;;;;5084473;28;20023;-77
2023/09/25 11:34:03;;;;;;;;;;;;;;;;;;5067949;28;19928;-77
2023/09/25 11:36:31;;;;;;;;;;;;;;;;;;5067334;28;19981;-74
2023/09/25 11:38:58;;;;;;;;;;;;;;;;;;5071192;28;19932;-81
2023/09/25 11:41:25;;;;;;;;;;;;;;;;;;5075791;28;19928;-78
2023/09/25 11:43:53;;;;;;;;;;;;;;;;;;5064514;28;19947;-78
2023/09/25 11:46:20;;;;;;;;;;;;;;;;;;5068194;28;19929;-76
2023/09/25 11:48:47;;;;;;;;;;;;;;;;;;5066806;28;20375;-79
2023/09/25 11:51:14;;;;;;;;;;;;;;;;;;5062781;28;19924;-79
2023/09/25 11:53:41;;;;;;;;;;;;;;;;;;5067748;28;19924;-80
2023/09/25 11:56:08;;;;;;;;;;;;;;;;;;5069927;28;20025;-77
2023/09/25 11:58:35;;;;;;;;;;;;;;;;;;5069223;28;19964;-78
2023/09/25 12:01:03;;;;;;;;;;;;;;;;;;5066661;28;19929;-79
2023/09/25 12:03:37;;;;;;;;;;;;;;;;;;5068828;28;19924;-78
2023/09/25 12:06:05;;;;;;;;;;;;;;;;;;5068536;28;20006;-79
2023/09/25 12:08:32;;;;;;;;;;;;;;;;;;5072819;28;20452;-78
2023/09/25 12:11:00;;;;;;;;;;;;;;;;;;5069602;28;19960;-79
2023/09/25 12:13:27;;;;;;;;;;;;;;;;;;5068060;28;20011;-76
2023/09/25 12:15:54;;;;;;;;;;;;;;;;;;5061661;28;19924;-76
2023/09/25 12:18:21;;;;;;;;;;;;;;;;;;5078382;28;20400;-75
2023/09/25 12:20:49;;;;;;;;;;;;;;;;;;5066208;28;19928;-77
2023/09/25 12:23:17;;;;;;;;;;;;;;;;;;5060730;28;19932;-77
2023/09/25 12:25:45;;;;;;;;;;;;;;;;;;5070284;28;19924;-75
2023/09/25 12:28:12;;;;;;;;;;;;;;;;;;5073259;28;20506;-78
2023/09/25 12:30:39;;;;;;;;;;;;;;;;;;5064389;28;19970;-77
2023/09/25 12:33:07;;;;;;;;;;;;;;;;;;5058152;28;20268;-77
2023/09/25 12:35:36;;;;;;;;;;;;;;;;;;5067648;28;20624;-77
2023/09/25 12:38:05;;;;;;;;;;;;;;;;;;5063741;28;19933;-76
2023/09/25 12:40:32;;;;;;;;;;;;;;;;;;5061681;28;19968;-76
2023/09/25 12:43:02;;;;;;;;;;;;;;;;;;5050776;28;19935;-75
2023/09/25 12:45:48;;;;;;;;;;;;;;;;;;5055478;28;19925;-78
2023/09/25 12:48:18;;;;;;;;;;;;;;;;;;5062555;28;20344;-76
2023/09/25 12:50:45;;;;;;;;;;;;;;;;;;5067320;28;19924;-72
2023/09/25 12:53:13;;;;;;;;;;;;;;;;;;5066703;28;20729;-77
2023/09/25 12:55:40;;;;;;;;;;;;;;;;;;5055902;28;19980;-77
2023/09/25 12:58:08;;;;;;;;;;;;;;;;;;5069479;28;19925;-76
2023/09/25 13:00:35;;;;;;;;;;;;;;;;;;5065917;28;19941;-79
2023/09/25 13:03:03;;;;;;;;;;;;;;;;;;5067290;28;20001;-79
2023/09/25 13:05:33;;;;;;;;;;;;;;;;;;5063997;28;19932;-78
2023/09/25 13:08:00;;;;;;;;;;;;;;;;;;5064995;28;19972;-79
2023/09/25 13:10:27;;;;;;;;;;;;;;;;;;5062976;28;20505;-78
2023/09/25 13:12:55;;;;;;;;;;;;;;;;;;5059176;28;19960;-78
2023/09/25 13:15:22;;;;;;;;;;;;;;;;;;5064505;28;19981;-78
2023/09/25 13:17:49;;;;;;;;;;;;;;;;;;5059863;28;19925;-77
2023/09/25 13:20:16;;;;;;;;;;;;;;;;;;5057084;28;20417;-79
2023/09/25 13:22:43;;;;;;;;;;;;;;;;;;5068205;28;19970;-78
2023/09/25 13:25:11;;;;;;;;;;;;;;;;;;5070174;28;19935;-81
2023/09/25 13:27:38;;;;;;;;;;;;;;;;;;5067047;28;19924;-80
2023/09/25 13:30:05;;;;;;;;;;;;;;;;;;5062333;28;19978;-80
2023/09/25 13:32:32;;;;;;;;;;;;;;;;;;5058385;28;20295;-80
2023/09/25 13:34:59;;;;;;;;;;;;;;;;;;5054552;28;19933;-77
2023/09/25 13:37:26;;;;;;;;;;;;;;;;;;5059642;28;19929;-77
2023/09/25 13:39:56;;;;;;;;;;;;;;;;;;5060898;28;19990;-77
2023/09/25 13:42:23;;;;;;;;;;;;;;;;;;5051418;28;20418;-76
2023/09/25 13:44:50;;;;;;;;;;;;;;;;;;5067982;28;19924;-78
2023/09/25 13:47:17;;;;;;;;;;;;;;;;;;5052892;28;21444;-78
2023/09/25 13:49:46;;;;;;;;;;;;;;;;;;5059194;28;19936;-80
2023/09/25 13:52:14;;;;;;;;;;;;;;;;;;5058036;28;19939;-79
2023/09/25 13:54:41;;;;;;;;;;;;;;;;;;5073265;28;19951;-78
2023/09/25 13:57:08;;;;;;;;;;;;;;;;;;5063107;28;19932;-78
2023/09/25 13:59:35;;;;;;;;;;;;;;;;;;5068728;28;20073;-75
2023/09/25 14:02:02;;;;;;;;;;;;;;;;;;5054688;28;19943;-75
2023/09/25 14:04:30;;;;;;;;;;;;;;;;;;5058259;28;20376;-74
2023/09/25 14:06:57;;;;;;;;;;;;;;;;;;5057004;28;19933;-73
2023/09/25 14:09:25;;;;;;;;;;;;;;;;;;5068452;28;19924;-73
2023/09/25 14:11:53;;;;;;;;;;;;;;;;;;5061736;28;20022;-73
2023/09/25 14:14:20;;;;;;;;;;;;;;;;;;5060140;28;19985;-73
2023/09/25 14:16:47;;;;;;;;;;;;;;;;;;5052042;28;19936;-73
2023/09/25 14:19:14;;;;;;;;;;;;;;;;;;5054644;28;19924;-72
2023/09/25 14:21:42;;;;;;;;;;;;;;;;;;5062765;28;20139;-75
2023/09/25 14:24:09;;;;;;;;;;;;;;;;;;5059657;28;20572;-72
2023/09/25 14:26:36;;;;;;;;;;;;;;;;;;5070635;28;19925;-72
2023/09/25 14:29:03;;;;;;;;;;;;;;;;;;5060944;28;20441;-72
2023/09/25 14:31:30;;;;;;;;;;;;;;;;;;5060226;28;19928;-73
2023/09/25 14:33:57;;;;;;;;;;;;;;;;;;5054596;28;20326;-72
2023/09/25 14:36:26;;;;;;;;;;;;;;;;;;5054176;28;20024;-72
2023/09/25 14:38:53;;;;;;;;;;;;;;;;;;5052759;28;19986;-72
2023/09/25 14:41:20;;;;;;;;;;;;;;;;;;5070870;28;20334;-70
2023/09/25 14:43:47;;;;;;;;;;;;;;;;;;5072149;28;19932;-71
2023/09/25 14:46:14;;;;;;;;;;;;;;;;;;5068997;28;19925;-71
2023/09/25 14:48:46;;;;;;;;;;;;;;;;;;5074734;28;19929;-72
2023/09/25 14:51:13;;;;;;;;;;;;;;;;;;5073996;28;19925;-72
2023/09/25 14:53:40;;;;;;;;;;;;;;;;;;5066347;28;19956;-71
2023/09/25 14:56:25;;;;;;;;;;;;;;;;;;5070095;28;19993;-71
2023/09/25 14:58:52;;;;;;;;;;;;;;;;;;5056997;28;19939;-72
2023/09/25 15:04:19;;;;;;;;;;;;;;;;;;5064660;28;19956;-72
2023/09/25 15:06:51;;;;;;;;;;;;;;;;;;5055672;28;20358;-72
2023/09/25 15:09:18;;;;;;;;;;;;;;;;;;5056274;28;20019;-72
2023/09/25 15:11:46;;;;;;;;;;;;;;;;;;5058392;28;19932;-71
2023/09/25 15:14:14;;;;;;;;;;;;;;;;;;5057600;28;19924;-73
2023/09/25 15:16:41;;;;;;;;;;;;;;;;;;5069816;28;19928;-73
2023/09/25 15:19:08;;;;;;;;;;;;;;;;;;5068126;28;19944;-74
2023/09/25 15:21:35;;;;;;;;;;;;;;;;;;5072089;28;19951;-75
2023/09/25 15:24:02;;;;;;;;;;;;;;;;;;5070965;28;20436;-74
2023/09/25 15:26:29;;;;;;;;;;;;;;;;;;5052328;28;19925;-71
2023/09/25 15:28:56;;;;;;;;;;;;;;;;;;5058961;28;19956;-72
2023/09/25 15:31:23;;;;;;;;;;;;;;;;;;5061871;28;19929;-71
2023/09/25 15:33:51;;;;;;;;;;;;;;;;;;5056707;28;20051;-72
2023/09/25 15:36:18;;;;;;;;;;;;;;;;;;5059260;28;19932;-72
2023/09/25 15:38:45;;;;;;;;;;;;;;;;;;5063929;28;19928;-75
2023/09/25 15:41:12;;;;;;;;;;;;;;;;;;5059993;28;19928;-75
2023/09/25 15:43:39;;;;;;;;;;;;;;;;;;5063547;28;20024;-75
2023/09/25 15:46:06;;;;;;;;;;;;;;;;;;5057813;28;20556;-74
2023/09/25 15:48:34;;;;;;;;;;;;;;;;;;5065208;28;19925;-76
2023/09/25 15:51:01;;;;;;;;;;;;;;;;;;5067727;28;19933;-75
2023/09/25 15:53:28;;;;;;;;;;;;;;;;;;5057960;28;19966;-75
2023/09/25 15:55:57;;;;;;;;;;;;;;;;;;5056685;28;19925;-74
2023/09/25 15:58:24;;;;;;;;;;;;;;;;;;5066318;28;20387;-74
2023/09/25 16:00:51;;;;;;;;;;;;;;;;;;5062209;28;19978;-74
2023/09/25 16:03:18;;;;;;;;;;;;;;;;;;5058748;28;20383;-75
2023/09/25 16:05:45;;;;;;;;;;;;;;;;;;5070613;28;20294;-75
2023/09/25 16:08:12;;;;;;;;;;;;;;;;;;5060983;28;19985;-76
2023/09/25 16:10:40;;;;;;;;;;;;;;;;;;5060362;28;19931;-75
2023/09/25 16:13:07;;;;;;;;;;;;;;;;;;5060789;28;19924;-75
2023/09/25 16:15:34;;;;;;;;;;;;;;;;;;5061630;28;19932;-75
2023/09/25 16:18:01;;;;;;;;;;;;;;;;;;5053297;28;19928;-75
2023/09/25 16:20:28;;;;;;;;;;;;;;;;;;5053288;28;20299;-74
2023/09/25 16:22:55;;;;;;;;;;;;;;;;;;5057917;28;19924;-74
2023/09/25 16:25:22;;;;;;;;;;;;;;;;;;5065726;28;19982;-74
2023/09/25 16:27:49;;;;;;;;;;;;;;;;;;5054922;28;19963;-74
2023/09/25 16:30:16;;;;;;;;;;;;;;;;;;5054163;28;20281;-75
2023/09/25 16:32:43;;;;;;;;;;;;;;;;;;5052433;28;19986;-74
2023/09/25 16:35:12;;;;;;;;;;;;;;;;;;5053522;28;20406;-74
2023/09/25 16:37:39;;;;;;;;;;;;;;;;;;5063796;28;20375;-74
2023/09/25 16:40:06;;;;;;;;;;;;;;;;;;5054290;28;19941;-75
2023/09/25 16:42:33;;;;;;;;;;;;;;;;;;5057399;28;19929;-75
2023/09/25 16:45:01;;;;;;;;;;;;;;;;;;5055462;28;19986;-75
2023/09/25 16:47:28;;;;;;;;;;;;;;;;;;5055350;28;19931;-75
2023/09/25 16:49:55;;;;;;;;;;;;;;;;;;5058437;28;20081;-78